Time;durP1;ratioP1;P1;durP2;ratioP2;P2;SDS_P1;SDS_P2;PMS_P1;PMS_P2;Temp;Humidity;BMP_temperature;BMP_pressure;BME280_temperature;BME280_humidity;BME280_pressure;Samples;Min_cycle;Max_cycle;Signal;HPM_P1;HPM_P2
2023/08/26 00:01:38;;;;;;;6.50;4.30;;;;;;;22.62;100.00;99600.56;177747;1262;44105;-81
2023/08/26 00:05:42;;;;;;;6.20;4.60;;;;;;;22.52;100.00;99607.32;176625;1261;46034;-82
2023/08/26 00:09:45;;;;;;;5.40;3.70;;;;;;;22.43;100.00;99606.48;176994;1262;46011;-83
2023/08/26 00:13:49;;;;;;;5.10;4.00;;;;;;;22.45;100.00;99600.36;177542;1261;44268;-82
2023/08/26 00:17:52;;;;;;;6.10;4.40;;;;;;;22.41;100.00;99603.55;177356;1261;57843;-82
2023/08/26 00:21:55;;;;;;;4.20;3.60;;;;;;;22.36;100.00;99598.07;177474;1261;46110;-82
2023/08/26 00:25:58;;;;;;;5.10;4.30;;;;;;;22.31;100.00;99593.45;177503;1262;46568;-81
2023/08/26 00:30:01;;;;;;;5.40;3.80;;;;;;;22.27;100.00;99595.64;177347;1262;46175;-82
2023/08/26 00:34:04;;;;;;;7.70;4.30;;;;;;;22.21;100.00;99597.31;177632;1261;45995;-82
2023/08/26 00:38:07;;;;;;;5.00;3.60;;;;;;;22.21;100.00;99596.69;177857;1262;57917;-82
2023/08/26 00:42:11;;;;;;;7.50;4.10;;;;;;;22.25;100.00;99591.38;177528;1262;46018;-82
2023/08/26 00:46:14;;;;;;;6.40;3.80;;;;;;;22.26;100.00;99588.73;177473;1262;45981;-82
2023/08/26 00:50:17;;;;;;;6.50;4.20;;;;;;;22.27;100.00;99590.73;177407;1261;46101;-82
2023/08/26 00:54:20;;;;;;;6.30;3.40;;;;;;;22.26;100.00;99589.52;177737;1262;45891;-83
2023/08/26 00:58:23;;;;;;;5.80;3.80;;;;;;;22.27;100.00;99586.52;177565;1261;58095;-81
2023/08/26 01:02:26;;;;;;;6.50;4.30;;;;;;;22.24;100.00;99588.84;177713;1262;45992;-82
2023/08/26 01:06:30;;;;;;;11.20;4.10;;;;;;;22.20;100.00;99589.77;177264;1262;45974;-83
2023/08/26 01:11:20;;;;;;;4.80;3.30;;;;;;;22.18;100.00;99590.61;177261;1262;46087;-82
2023/08/26 01:15:25;;;;;;;5.30;3.70;;;;;;;22.19;100.00;99585.52;177112;1268;46193;-83
2023/08/26 01:19:36;;;;;;;12.70;3.80;;;;;;;22.14;100.00;99592.36;176849;1268;58904;-83
2023/08/26 01:23:41;;;;;;;4.80;4.10;;;;;;;22.01;100.00;99595.94;176839;1268;45927;-82
2023/08/26 01:27:44;;;;;;;8.70;6.30;;;;;;;21.79;100.00;99595.98;177213;1268;46113;-82
2023/08/26 01:32:11;;;;;;;12.90;7.30;;;;;;;21.63;100.00;99597.39;177348;1271;44405;-82
2023/08/26 01:36:19;;;;;;;9.10;4.90;;;;;;;21.48;100.00;99595.58;176119;1273;47227;-82
2023/08/26 01:40:23;;;;;;;8.10;5.80;;;;;;;21.45;100.00;99596.34;175590;1276;58592;-82
2023/08/26 01:44:27;;;;;;;9.00;4.70;;;;;;;21.45;100.00;99596.00;177069;1276;46338;-82
2023/08/26 01:48:30;;;;;;;5.70;5.00;;;;;;;21.47;100.00;99602.61;175492;1270;46414;-82
2023/08/26 01:52:33;;;;;;;5.30;4.00;;;;;;;21.55;100.00;99602.95;176406;1269;46084;-82
2023/08/26 01:56:36;;;;;;;10.40;6.00;;;;;;;21.59;100.00;99601.80;176350;1270;46041;-82
2023/08/26 02:00:39;;;;;;;9.20;5.20;;;;;;;21.56;100.00;99595.23;176241;1270;59821;-82
2023/08/26 02:04:42;;;;;;;6.30;3.60;;;;;;;21.51;100.00;99602.55;176257;1269;46045;-82
2023/08/26 02:08:47;;;;;;;7.20;4.30;;;;;;;21.28;100.00;99593.86;176212;1269;46188;-82
2023/08/26 02:12:50;;;;;;;5.30;3.90;;;;;;;21.02;100.00;99598.67;176803;1262;46101;-82
2023/08/26 02:16:53;;;;;;;5.90;4.90;;;;;;;20.88;100.00;99592.42;177367;1262;46043;-82
2023/08/26 02:20:56;;;;;;;6.10;4.60;;;;;;;20.83;100.00;99584.08;177757;1261;59449;-82
2023/08/26 02:24:59;;;;;;;9.10;6.30;;;;;;;20.80;100.00;99581.59;177043;1264;46893;-82
2023/08/26 02:29:03;;;;;;;12.70;7.10;;;;;;;20.81;100.00;99577.00;177114;1262;46266;-82
2023/08/26 02:33:08;;;;;;;7.80;6.40;;;;;;;20.80;100.00;99575.99;177212;1262;46028;-83
2023/08/26 02:37:12;;;;;;;8.10;5.00;;;;;;;20.86;100.00;99582.13;177159;1262;45989;-83
2023/08/26 02:41:15;;;;;;;5.40;4.40;;;;;;;20.88;100.00;99579.00;177161;1262;59440;-83
2023/08/26 02:45:18;;;;;;;5.00;4.40;;;;;;;20.86;100.00;99575.13;176739;1262;46040;-82
2023/08/26 02:49:21;;;;;;;9.50;5.80;;;;;;;20.84;100.00;99568.61;176801;1261;46073;-83
2023/08/26 02:53:25;;;;;;;8.20;5.60;;;;;;;20.83;100.00;99573.09;177158;1262;46085;-81
2023/08/26 02:57:28;;;;;;;6.80;5.30;;;;;;;20.80;100.00;99569.84;177287;1261;46317;-82
2023/08/26 03:01:31;;;;;;;5.60;4.40;;;;;;;20.80;100.00;99575.20;177442;1263;58041;-81
2023/08/26 03:05:34;;;;;;;5.80;3.50;;;;;;;20.74;100.00;99577.24;177735;1265;46202;-81
2023/08/26 03:09:37;;;;;;;6.30;3.90;;;;;;;20.74;100.00;99579.52;176901;1265;44184;-81
2023/08/26 03:13:41;;;;;;;8.70;5.10;;;;;;;20.73;100.00;99574.08;176638;1267;46104;-82
2023/08/26 03:17:44;;;;;;;6.90;4.90;;;;;;;20.75;100.00;99575.74;177604;1262;46046;-81
2023/08/26 03:21:47;;;;;;;7.60;4.30;;;;;;;20.78;100.00;99577.80;176841;1262;59771;-81
2023/08/26 03:25:50;;;;;;;5.70;5.20;;;;;;;20.77;100.00;99572.33;176918;1261;46072;-81
2023/08/26 03:29:54;;;;;;;4.50;4.00;;;;;;;20.81;100.00;99568.67;178237;1262;46001;-81
2023/08/26 03:33:57;;;;;;;6.20;4.10;;;;;;;20.92;100.00;99575.28;177275;1262;45981;-82
2023/08/26 03:38:00;;;;;;;4.90;4.10;;;;;;;20.97;100.00;99572.27;176858;1266;46035;-81
2023/08/26 03:42:03;;;;;;;6.60;5.40;;;;;;;21.04;100.00;99572.21;176880;1262;59250;-81
2023/08/26 03:46:07;;;;;;;5.70;4.50;;;;;;;21.13;100.00;99575.39;177042;1262;46108;-81
2023/08/26 03:50:10;;;;;;;6.70;4.60;;;;;;;21.19;100.00;99579.23;177668;1262;46593;-82
2023/08/26 03:54:14;;;;;;;10.70;5.40;;;;;;;21.21;100.00;99577.23;177195;1262;45973;-81
2023/08/26 03:58:18;;;;;;;7.00;5.00;;;;;;;21.25;100.00;99577.86;177816;1262;45966;-82
2023/08/26 04:02:21;;;;;;;7.80;5.60;;;;;;;21.30;100.00;99579.16;177258;1262;59478;-82
2023/08/26 04:06:24;;;;;;;8.00;5.10;;;;;;;21.36;100.00;99583.22;177305;1262;46198;-82
2023/08/26 04:10:27;;;;;;;8.20;4.60;;;;;;;21.41;100.00;99584.11;177928;1262;45976;-82
2023/08/26 04:14:31;;;;;;;7.00;5.50;;;;;;;21.45;100.00;99587.34;176861;1267;46140;-82
2023/08/26 04:18:34;;;;;;;8.10;5.00;;;;;;;21.51;100.00;99595.23;176779;1262;45963;-82
2023/08/26 04:22:38;;;;;;;10.80;5.60;;;;;;;21.59;100.00;99600.06;176868;1262;59556;-82
2023/08/26 04:26:41;;;;;;;6.40;5.50;;;;;;;21.70;100.00;99608.98;177341;1262;45985;-82
2023/08/26 04:30:45;;;;;;;4.70;3.90;;;;;;;21.91;100.00;99617.08;177543;1261;46181;-82
2023/08/26 04:34:49;;;;;;;6.60;5.40;;;;;;;22.01;100.00;99618.98;177367;1262;46144;-82
2023/08/26 04:38:52;;;;;;;7.10;5.60;;;;;;;22.22;100.00;99623.35;177579;1262;46020;-82
2023/08/26 04:42:56;;;;;;;6.00;4.30;;;;;;;22.36;100.00;99631.04;177972;1266;59261;-82
2023/08/26 04:46:59;;;;;;;6.10;4.90;;;;;;;22.56;100.00;99634.63;178060;1262;46072;-83
2023/08/26 04:51:04;;;;;;;7.00;5.40;;;;;;;22.73;100.00;99637.20;177985;1262;46213;-83
2023/08/26 04:55:08;;;;;;;10.80;5.20;;;;;;;23.20;100.00;99630.73;177989;1262;46539;-82
2023/08/26 04:59:11;;;;;;;5.90;3.90;;;;;;;23.77;100.00;99621.09;179358;1259;44459;-82
2023/08/26 05:03:14;;;;;;;5.20;4.70;;;;;;;23.93;100.00;99619.29;179149;1259;58029;-82
2023/08/26 05:07:17;;;;;;;8.80;4.50;;;;;;;23.99;100.00;99617.05;178859;1260;44018;-82
2023/08/26 05:11:20;;;;;;;4.50;3.30;;;;;;;23.93;100.00;99610.23;179018;1262;46220;-82
2023/08/26 05:15:24;;;;;;;11.40;4.90;;;;;;;23.78;100.00;99606.38;178884;1260;46089;-82
2023/08/26 05:19:27;;;;;;;5.50;3.20;;;;;;;23.76;100.00;99616.27;178890;1260;46209;-82
2023/08/26 05:23:31;;;;;;;3.50;2.80;;;;;;;23.79;100.00;99620.27;179361;1260;58242;-82
2023/08/26 05:27:35;;;;;;;5.80;3.80;;;;;;;23.80;100.00;99633.67;179133;1259;46006;-82
2023/08/26 05:31:38;;;;;;;5.80;4.20;;;;;;;23.69;100.00;99632.65;179154;1261;46141;-83
2023/08/26 05:35:42;;;;;;;3.30;3.00;;;;;;;23.60;100.00;99632.95;179296;1260;46172;-83
2023/08/26 05:39:46;;;;;;;3.90;3.40;;;;;;;23.57;100.00;99634.21;179344;1261;44467;-83
2023/08/26 05:43:49;;;;;;;4.50;3.00;;;;;;;23.58;100.00;99632.50;178939;1260;59555;-82
2023/08/26 05:47:53;;;;;;;6.40;3.70;;;;;;;23.53;100.00;99641.70;179185;1259;45915;-82
2023/08/26 05:51:59;;;;;;;6.10;3.80;;;;;;;23.49;100.00;99657.49;179397;1259;45865;-82
2023/08/26 05:56:02;;;;;;;11.00;3.70;;;;;;;23.47;100.00;99666.73;179068;1263;46146;-82
2023/08/26 06:00:07;;;;;;;5.40;4.10;;;;;;;23.46;100.00;99669.08;179128;1259;45896;-83
2023/08/26 06:04:11;;;;;;;;;;;;;;;23.49;100.00;99677.48;178992;1258;59237;-83
2023/08/26 06:08:14;;;;;;;5.60;5.10;;;;;;;23.48;100.00;99686.39;179217;1260;44469;-83
2023/08/26 06:12:17;;;;;;;5.30;3.60;;;;;;;23.50;100.00;99690.75;179208;1259;44860;-82
2023/08/26 06:16:21;;;;;;;6.80;3.90;;;;;;;23.60;100.00;99696.29;179408;1259;46185;-83
2023/08/26 06:20:26;;;;;;;6.30;4.50;;;;;;;23.64;100.00;99696.02;179466;1259;45859;-83
2023/08/26 06:24:29;;;;;;;5.70;3.30;;;;;;;23.53;100.00;99693.02;179508;1259;58228;-83
2023/08/26 06:28:33;;;;;;;7.80;3.60;;;;;;;23.46;100.00;99695.61;179004;1260;44527;-82
2023/08/26 06:32:36;;;;;;;5.70;4.50;;;;;;;23.44;100.00;99702.72;179263;1259;46070;-82
2023/08/26 06:36:40;;;;;;;5.50;3.50;;;;;;;23.47;100.00;99709.28;179462;1259;46005;-83
2023/08/26 06:40:43;;;;;;;7.10;3.90;;;;;;;23.57;100.00;99719.70;179437;1260;44469;-82
2023/08/26 06:44:47;;;;;;;6.80;3.70;;;;;;;23.68;100.00;99721.55;179165;1260;58307;-82
2023/08/26 06:48:50;;;;;;;7.80;4.00;;;;;;;23.85;100.00;99723.64;179066;1259;46134;-83
2023/08/26 06:52:55;;;;;;;6.60;5.00;;;;;;;24.10;100.00;99726.73;179403;1260;45948;-82
2023/08/26 06:56:58;;;;;;;5.80;4.80;;;;;;;24.32;100.00;99735.86;179257;1259;44226;-82
2023/08/26 07:01:03;;;;;;;4.90;4.40;;;;;;;24.53;100.00;99741.96;179166;1261;46012;-81
2023/08/26 07:05:06;;;;;;;7.10;4.50;;;;;;;24.71;100.00;99748.52;179431;1260;59462;-82
2023/08/26 07:09:10;;;;;;;3.60;3.20;;;;;;;24.84;100.00;99755.86;179359;1260;45151;-82
2023/08/26 07:13:14;;;;;;;6.90;3.50;;;;;;;24.89;100.00;99757.97;179244;1260;45978;-82
2023/08/26 07:17:18;;;;;;;9.80;3.70;;;;;;;24.99;100.00;99759.23;179801;1259;44089;-82
2023/08/26 07:21:21;;;;;;;5.70;3.30;;;;;;;25.10;100.00;99760.09;179441;1259;49242;-82
2023/08/26 07:25:25;;;;;;;7.20;3.80;;;;;;;25.23;100.00;99763.57;179676;1260;58509;-82
2023/08/26 07:29:33;;;;;;;7.20;4.40;;;;;;;25.37;100.00;99775.16;179397;1263;46076;-84
2023/08/26 07:33:37;;;;;;;8.20;3.80;;;;;;;25.54;100.00;99789.55;179431;1259;46083;-84
2023/08/26 07:37:41;;;;;;;7.00;3.80;;;;;;;25.63;100.00;99793.64;179770;1259;44757;-84
2023/08/26 07:41:45;;;;;;;6.80;4.80;;;;;;;25.59;100.00;99781.99;179908;1259;46125;-82
2023/08/26 07:45:49;;;;;;;6.20;4.40;;;;;;;25.63;100.00;99767.54;179833;1260;58273;-83
2023/08/26 07:50:13;;;;;;;5.60;3.80;;;;;;;25.83;100.00;99762.63;179661;1260;45930;-83
2023/08/26 07:54:17;;;;;;;4.10;3.70;;;;;;;26.01;100.00;99763.48;179954;1259;45234;-83
2023/08/26 07:58:21;;;;;;;5.10;3.90;;;;;;;25.98;100.00;99753.61;180093;1259;44489;-83
2023/08/26 08:02:24;;;;;;;5.20;4.00;;;;;;;25.97;100.00;99762.05;180409;1259;45187;-81
2023/08/26 08:06:28;;;;;;;4.10;3.70;;;;;;;25.93;100.00;99782.73;179714;1259;57599;-81
2023/08/26 08:10:31;;;;;;;11.90;5.10;;;;;;;25.87;100.00;99790.92;180032;1259;44000;-81
2023/08/26 08:14:34;;;;;;;6.20;5.10;;;;;;;25.77;100.00;99794.99;178796;1259;46176;-85
2023/08/26 08:18:37;;;;;;;8.40;5.50;;;;;;;25.70;100.00;99796.66;179533;1259;44672;-83
2023/08/26 08:22:43;;;;;;;6.10;5.10;;;;;;;25.65;100.00;99801.73;178963;1258;45996;-83
2023/08/26 08:26:46;;;;;;;5.50;4.70;;;;;;;25.63;100.00;99787.85;178881;1261;57265;-82
2023/08/26 08:30:49;;;;;;;6.30;4.30;;;;;;;25.59;100.00;99781.77;178778;1259;45900;-84
2023/08/26 08:34:53;;;;;;;5.50;5.00;;;;;;;25.47;100.00;99796.16;178886;1259;45991;-83
2023/08/26 08:38:57;;;;;;;5.60;4.60;;;;;;;25.37;100.00;99785.44;179035;1259;44159;-84
2023/08/26 08:43:02;;;;;;;5.90;4.80;;;;;;;25.31;100.00;99776.20;178938;1259;45962;-83
2023/08/26 08:47:06;;;;;;;7.70;5.00;;;;;;;25.26;100.00;99759.66;179343;1259;59546;-83
2023/08/26 08:51:10;;;;;;;8.90;6.10;;;;;;;25.29;100.00;99740.30;178745;1262;45962;-82
2023/08/26 08:55:13;;;;;;;5.40;4.90;;;;;;;25.33;100.00;99734.08;178508;1259;46060;-83
2023/08/26 08:59:19;;;;;;;6.50;5.90;;;;;;;25.31;100.00;99738.80;178565;1259;46078;-84
2023/08/26 09:03:23;;;;;;;;;;;;;;;25.27;100.00;99744.08;179199;1259;44533;-83
2023/08/26 09:07:27;;;;;;;11.40;7.10;;;;;;;25.22;100.00;99727.31;179465;1259;57709;-84
2023/08/26 09:11:30;;;;;;;9.30;6.30;;;;;;;25.27;100.00;99711.95;178350;1259;46026;-84
2023/08/26 09:15:35;;;;;;;6.80;6.10;;;;;;;25.33;100.00;99705.97;178696;1259;46721;-83
2023/08/26 09:19:53;;;;;;;7.10;6.20;;;;;;;25.43;100.00;99697.42;179096;1259;46036;-83
2023/08/26 09:23:57;;;;;;;5.60;4.90;;;;;;;25.59;100.00;99713.06;179021;1259;45944;-83
2023/08/26 09:28:00;;;;;;;9.80;5.80;;;;;;;25.76;100.00;99711.77;178665;1260;59839;-83
2023/08/26 09:32:06;;;;;;;5.60;5.00;;;;;;;25.86;100.00;99700.20;179329;1260;45942;-82
2023/08/26 09:36:09;;;;;;;5.30;4.80;;;;;;;26.06;100.00;99695.32;179024;1258;44978;-84
2023/08/26 09:40:16;;;;;;;5.90;3.70;;;;;;;26.39;100.00;99692.16;178192;1260;235823;-83
2023/08/26 09:44:21;;;;;;;5.00;4.50;;;;;;;26.70;100.00;99687.68;179415;1259;45962;-83
2023/08/26 09:48:24;;;;;;;4.10;3.70;;;;;;;26.98;99.95;99690.32;179059;1262;58256;-82
2023/08/26 09:52:27;;;;;;;6.00;4.50;;;;;;;27.31;99.47;99694.62;179218;1260;46001;-83
2023/08/26 09:56:31;;;;;;;3.70;3.40;;;;;;;27.57;93.61;99701.98;179379;1259;44096;-83
2023/08/26 10:00:34;;;;;;;6.20;4.20;;;;;;;27.80;91.86;99707.80;179783;1259;46114;-83
2023/08/26 10:04:38;;;;;;;3.70;3.40;;;;;;;28.02;87.39;99706.19;179828;1259;45988;-82
2023/08/26 10:08:44;;;;;;;3.90;3.00;;;;;;;28.10;84.42;99711.63;179283;1257;57912;-82
2023/08/26 10:12:52;;;;;;;4.70;2.80;;;;;;;28.16;84.98;99707.55;179351;1260;45931;-82
2023/08/26 10:16:56;;;;;;;7.00;2.70;;;;;;;28.29;84.39;99702.01;179453;1259;46032;-82
2023/08/26 10:21:02;;;;;;;2.10;1.80;;;;;;;28.45;82.86;99714.35;179221;1259;46178;-82
2023/08/26 10:25:09;;;;;;;3.70;2.50;;;;;;;28.57;78.34;99702.33;179707;1259;45978;-82
2023/08/26 10:29:13;;;;;;;1.60;1.50;;;;;;;28.76;79.42;99703.09;179990;1259;59124;-81
2023/08/26 10:33:18;;;;;;;2.90;2.30;;;;;;;28.97;78.05;99695.34;179527;1259;45862;-82
2023/08/26 10:37:25;;;;;;;2.20;2.00;;;;;;;29.14;76.75;99688.70;179722;1259;46074;-82
2023/08/26 10:41:28;;;;;;;3.80;2.40;;;;;;;29.11;74.93;99684.58;179625;1259;46169;-83
2023/08/26 10:45:31;;;;;;;4.90;2.50;;;;;;;29.12;74.09;99673.95;179487;1259;45754;-80
2023/08/26 10:49:37;;;;;;;3.40;2.50;;;;;;;29.22;77.33;99671.00;179181;1258;58232;-80
2023/08/26 10:53:44;;;;;;;2.50;2.30;;;;;;;29.25;74.46;99680.17;180518;1260;45911;-80
2023/08/26 10:57:59;;;;;;;3.40;1.90;;;;;;;29.24;73.67;99673.97;179842;1259;44144;-81
2023/08/26 11:02:08;;;;;;;2.10;1.90;;;;;;;29.23;73.26;99681.47;179166;1260;44798;-81
2023/08/26 11:06:24;;;;;;;2.60;2.40;;;;;;;29.12;73.62;99674.11;179281;1260;45939;-81
2023/08/26 11:10:32;;;;;;;4.20;2.60;;;;;;;28.97;75.61;99678.73;179145;1259;58010;-80
2023/08/26 11:14:35;;;;;;;3.40;3.10;;;;;;;28.77;73.91;99685.13;179080;1259;45186;-81
2023/08/26 11:18:38;;;;;;;3.10;2.80;;;;;;;28.82;74.83;99690.12;179016;1259;46101;-81
2023/08/26 11:22:45;;;;;;;12.50;3.90;;;;;;;29.04;76.72;99697.02;179280;1260;46017;-80
2023/08/26 11:26:49;;;;;;;6.30;3.50;;;;;;;29.07;75.06;99702.45;178799;1259;46154;-81
2023/08/26 11:30:53;;;;;;;4.10;3.20;;;;;;;29.02;75.50;99705.98;179054;1260;58228;-80
2023/08/26 11:34:57;;;;;;;4.10;3.70;;;;;;;29.15;74.11;99702.17;179413;1264;46045;-80
2023/08/26 11:39:01;;;;;;;5.40;3.00;;;;;;;29.17;75.08;99705.52;179296;1259;44220;-81
2023/08/26 11:43:13;;;;;;;3.00;2.70;;;;;;;29.33;75.97;99703.21;179227;1259;45990;-81
2023/08/26 11:47:16;;;;;;;5.30;3.00;;;;;;;29.43;74.52;99703.73;179977;1263;43953;-81
2023/08/26 11:51:20;;;;;;;2.90;2.60;;;;;;;29.64;75.27;99706.45;179325;1260;57444;-81
2023/08/26 11:55:28;;;;;;;2.70;2.30;;;;;;;29.96;73.64;99709.66;179640;1260;44055;-82
2023/08/26 11:59:39;;;;;;;4.00;3.60;;;;;;;30.34;74.12;99710.09;179481;1260;45993;-81
2023/08/26 12:03:43;;;;;;;2.50;2.30;;;;;;;30.69;73.79;99702.30;179514;1259;46009;-83
2023/08/26 12:07:49;;;;;;;1.90;1.70;;;;;;;30.73;69.11;99710.57;179869;1260;44075;-82
2023/08/26 12:11:53;;;;;;;;;;;;;;;30.24;68.63;99717.25;179674;1259;59283;-82
2023/08/26 12:15:57;;;;;;;0.90;0.80;;;;;;;29.80;68.59;99710.04;179699;1259;44438;-81
2023/08/26 12:20:00;;;;;;;3.70;1.20;;;;;;;29.58;67.92;99709.16;179769;1259;44715;-83
2023/08/26 12:24:05;;;;;;;8.30;1.70;;;;;;;29.59;66.47;99727.77;179745;1262;44900;-81
2023/08/26 12:28:14;;;;;;;1.00;0.70;;;;;;;29.47;68.59;99733.77;179977;1261;47367;-82
2023/08/26 12:32:17;;;;;;;2.00;0.70;;;;;;;29.59;67.87;99736.48;179896;1260;59286;-82
2023/08/26 12:36:20;;;;;;;0.90;0.80;;;;;;;29.49;66.55;99742.11;179069;1260;44675;-82
2023/08/26 12:40:24;;;;;;;1.40;0.80;;;;;;;29.75;68.55;99742.07;179285;1261;45958;-81
2023/08/26 12:44:27;;;;;;;1.40;0.90;;;;;;;29.82;65.87;99743.09;179852;1260;45887;-82
2023/08/26 12:48:31;;;;;;;1.70;1.30;;;;;;;29.94;65.66;99740.67;179289;1260;44722;-82
2023/08/26 12:52:54;;;;;;;1.40;1.10;;;;;;;30.01;65.12;99741.81;179491;1261;59999;-81
2023/08/26 12:56:58;;;;;;;0.70;0.60;;;;;;;30.11;67.59;99733.64;179892;1261;45993;-82
2023/08/26 13:01:02;;;;;;;1.90;1.00;;;;;;;30.19;67.55;99730.91;179700;1260;45965;-82
2023/08/26 13:05:07;;;;;;;2.20;0.80;;;;;;;30.26;68.56;99733.18;179255;1260;44681;-81
2023/08/26 13:09:10;;;;;;;;;;;;;;;30.21;68.80;99723.46;180016;1261;44370;-82
2023/08/26 13:13:14;;;;;;;1.50;0.90;;;;;;;30.31;67.98;99713.16;180189;1259;60346;-83
2023/08/26 13:17:17;;;;;;;1.80;1.50;;;;;;;30.26;67.30;99711.17;180127;1260;45964;-82
2023/08/26 13:21:21;;;;;;;3.20;1.30;;;;;;;30.12;67.78;99710.33;179875;1259;46002;-81
2023/08/26 13:25:24;;;;;;;1.40;1.30;;;;;;;29.92;69.11;99704.11;180096;1260;46163;-82
2023/08/26 13:29:28;;;;;;;1.80;1.70;;;;;;;29.91;68.83;99694.67;179912;1259;46082;-82
2023/08/26 13:33:32;;;;;;;14.60;3.00;;;;;;;30.02;70.67;99681.73;179813;1260;57981;-82
2023/08/26 13:37:35;;;;;;;1.50;1.20;;;;;;;30.15;70.58;99669.97;179700;1259;46001;-82
2023/08/26 13:41:39;;;;;;;2.20;1.90;;;;;;;30.15;70.29;99658.23;179857;1260;45245;-82
2023/08/26 13:45:42;;;;;;;1.90;1.60;;;;;;;30.30;68.79;99652.93;179828;1261;46082;-82
2023/08/26 13:49:46;;;;;;;3.00;1.50;;;;;;;30.00;69.94;99650.52;179380;1263;45851;-81
2023/08/26 13:53:49;;;;;;;2.20;1.60;;;;;;;29.90;69.18;99643.34;179736;1260;59497;-82
2023/08/26 13:57:53;;;;;;;4.70;2.30;;;;;;;29.74;70.87;99638.33;179797;1260;43642;-82
2023/08/26 14:01:56;;;;;;;4.10;1.60;;;;;;;29.61;71.06;99648.85;179622;1261;45955;-82
2023/08/26 14:06:00;;;;;;;2.70;1.90;;;;;;;29.33;72.82;99651.40;179677;1261;46252;-82
2023/08/26 14:10:05;;;;;;;3.60;2.20;;;;;;;29.10;73.75;99648.43;179575;1262;44711;-83
2023/08/26 14:14:08;;;;;;;2.50;1.70;;;;;;;29.22;73.58;99651.34;179335;1260;58408;-82
2023/08/26 14:18:11;;;;;;;2.50;1.70;;;;;;;29.33;72.31;99660.65;179347;1260;45984;-83
2023/08/26 14:22:15;;;;;;;10.70;3.60;;;;;;;29.45;74.34;99663.54;179912;1260;46056;-82
2023/08/26 14:26:19;;;;;;;3.30;2.40;;;;;;;29.47;75.06;99667.05;179618;1261;46036;-82
2023/08/26 14:30:23;;;;;;;1.80;1.30;;;;;;;29.46;74.57;99669.78;179517;1259;44802;-82
2023/08/26 14:34:26;;;;;;;2.60;2.00;;;;;;;29.49;74.43;99670.73;179378;1263;59427;-83
2023/08/26 14:38:30;;;;;;;10.40;5.00;;;;;;;29.41;74.13;99663.72;179196;1260;45953;-82
2023/08/26 14:42:34;;;;;;;8.30;4.00;;;;;;;29.25;73.45;99661.60;179527;1260;45955;-81
2023/08/26 14:46:37;;;;;;;8.80;4.40;;;;;;;29.03;71.87;99668.31;179583;1260;46012;-83
2023/08/26 14:50:43;;;;;;;5.60;2.30;;;;;;;28.84;74.57;99669.70;179789;1260;44762;-85
2023/08/26 14:54:47;;;;;;;;;;;;;;;28.64;74.42;99667.75;180257;1260;58201;-83
2023/08/26 14:58:50;;;;;;;4.30;3.20;;;;;;;28.63;76.37;99682.83;180349;1260;45781;-83
2023/08/26 15:02:54;;;;;;;3.60;2.90;;;;;;;28.57;80.03;99686.02;180217;1263;43810;-83
2023/08/26 15:06:58;;;;;;;3.50;3.20;;;;;;;28.30;81.16;99694.36;179948;1259;45981;-82
2023/08/26 15:11:02;;;;;;;3.70;3.10;;;;;;;28.07;82.73;99685.73;180404;1260;44048;-82
2023/08/26 15:15:06;;;;;;;2.60;2.40;;;;;;;27.98;82.46;99687.55;180178;1261;59492;-83
2023/08/26 15:19:10;;;;;;;;;;;;;;;27.89;83.82;99682.31;180191;1261;46020;-83
2023/08/26 15:23:16;;;;;;;7.80;3.10;;;;;;;27.97;84.23;99680.33;180295;1261;43918;-83
2023/08/26 15:27:19;;;;;;;3.90;2.70;;;;;;;28.05;81.55;99678.50;180108;1259;44249;-82
2023/08/26 15:31:23;;;;;;;7.50;4.00;;;;;;;27.97;75.48;99678.02;179964;1260;46083;-83
2023/08/26 15:35:29;;;;;;;2.60;2.30;;;;;;;27.87;75.27;99675.61;180042;1263;59270;-83
2023/08/26 15:39:34;;;;;;;7.50;2.60;;;;;;;27.65;76.97;99679.85;180222;1260;46142;-82
2023/08/26 15:43:38;;;;;;;5.90;2.50;;;;;;;27.49;79.74;99685.41;180066;1261;46361;-83
2023/08/26 15:47:43;;;;;;;4.30;2.30;;;;;;;27.46;82.59;99685.48;180184;1259;44371;-83
2023/08/26 15:51:48;;;;;;;2.20;2.00;;;;;;;27.58;82.49;99675.94;180040;1259;44533;-83
2023/08/26 15:55:52;;;;;;;5.80;3.40;;;;;;;27.70;77.38;99676.63;180150;1265;58701;-83
2023/08/26 15:59:57;;;;;;;4.40;3.60;;;;;;;27.78;76.84;99670.39;180151;1261;44406;-83
2023/08/26 16:04:01;;;;;;;12.10;4.10;;;;;;;27.66;75.70;99683.14;179805;1261;44364;-83
2023/08/26 16:08:07;;;;;;;11.30;3.40;;;;;;;27.51;75.19;99694.62;179806;1264;46569;-83
2023/08/26 16:12:16;;;;;;;2.40;1.80;;;;;;;27.47;75.40;99695.05;180119;1261;45950;-83
2023/08/26 16:20:42;;;;;;;3.20;2.30;;;;;;;27.63;78.38;99682.02;179649;1263;44601;-80
2023/08/26 16:24:46;;;;;;;5.50;3.60;;;;;;;27.76;80.73;99680.09;179739;1263;44738;-80
2023/08/26 16:28:49;;;;;;;4.90;2.50;;;;;;;27.85;81.39;99679.86;179737;1263;44111;-80
2023/08/26 16:32:53;;;;;;;4.50;1.70;;;;;;;27.88;83.78;99679.28;179286;1263;46110;-80
2023/08/26 16:36:57;;;;;;;15.40;4.10;;;;;;;27.88;85.21;99685.67;179278;1262;58610;-80
2023/08/26 16:41:04;;;;;;;36.80;7.00;;;;;;;27.88;84.52;99694.44;179384;1264;45877;-80
2023/08/26 16:45:10;;;;;;;16.40;5.50;;;;;;;27.82;84.65;99704.26;179661;1257;44695;-81
2023/08/26 16:49:15;;;;;;;12.70;5.20;;;;;;;27.69;85.42;99708.14;180816;1259;43791;-81
2023/08/26 16:53:20;;;;;;;;;;;;;;;27.52;87.42;99714.58;180718;1259;46083;-81
2023/08/26 16:57:24;;;;;;;9.80;4.40;;;;;;;27.32;87.32;99717.58;180544;1259;59700;-81
2023/08/26 17:01:28;;;;;;;8.00;3.70;;;;;;;27.07;85.01;99714.36;180446;1259;44744;-81
2023/08/26 17:05:33;;;;;;;7.20;3.60;;;;;;;26.94;85.32;99707.58;180483;1259;46108;-81
2023/08/26 17:09:37;;;;;;;;;;;;;;;26.83;88.52;99702.35;180343;1259;43518;-81
2023/08/26 17:13:41;;;;;;;12.90;4.10;;;;;;;26.62;91.43;99698.73;180524;1259;45807;-81
2023/08/26 17:17:46;;;;;;;14.10;3.20;;;;;;;26.53;91.90;99704.41;180586;1259;59330;-81
2023/08/26 17:21:50;;;;;;;4.70;3.30;;;;;;;26.47;92.46;99709.70;180644;1259;44534;-81
2023/08/26 17:25:54;;;;;;;5.30;2.70;;;;;;;26.48;91.52;99701.16;180565;1259;44591;-81
2023/08/26 17:29:58;;;;;;;61.60;10.60;;;;;;;26.52;92.32;99708.87;180456;1260;44186;-81
2023/08/26 17:34:02;;;;;;;34.80;5.40;;;;;;;26.50;94.26;99702.67;180437;1259;43933;-81
2023/08/26 17:38:06;;;;;;;24.00;10.90;;;;;;;26.45;93.78;99700.73;180457;1259;59712;-81
2023/08/26 17:42:11;;;;;;;14.30;9.00;;;;;;;26.38;94.28;99687.69;180609;1259;46082;-81
2023/08/26 17:46:18;;;;;;;29.90;9.50;;;;;;;26.33;93.56;99688.63;180036;1257;45954;-81
2023/08/26 17:50:22;;;;;;;20.80;12.50;;;;;;;26.30;94.52;99673.42;179453;1259;45947;-81
2023/08/26 17:54:26;;;;;;;24.40;14.00;;;;;;;26.24;93.29;99677.23;179058;1259;46067;-81
2023/08/26 17:58:29;;;;;;;43.20;20.00;;;;;;;26.11;93.98;99678.55;179129;1259;58375;-82
2023/08/26 18:02:33;;;;;;;48.40;16.50;;;;;;;25.99;93.81;99690.22;178986;1261;44760;-81
2023/08/26 18:06:37;;;;;;;28.80;9.40;;;;;;;25.90;91.58;99696.84;179265;1261;45654;-81
2023/08/26 18:10:40;;;;;;;61.00;18.10;;;;;;;25.75;90.86;99686.64;178823;1260;46107;-80
2023/08/26 18:14:44;;;;;;;14.70;11.60;;;;;;;25.54;90.16;99682.33;178692;1259;46041;-80
2023/08/26 18:18:47;;;;;;;15.80;8.40;;;;;;;25.29;93.87;99685.75;177927;1259;60199;-81
2023/08/26 18:22:52;;;;;;;8.10;5.30;;;;;;;25.10;95.02;99693.71;178299;1259;44844;-80
2023/08/26 18:26:56;;;;;;;11.90;4.50;;;;;;;24.93;96.44;99687.89;178561;1259;45922;-81
2023/08/26 18:30:59;;;;;;;7.70;4.50;;;;;;;24.77;96.28;99689.16;178758;1260;44782;-80
2023/08/26 18:35:03;;;;;;;17.00;6.60;;;;;;;24.59;95.50;99694.53;178658;1260;44849;-80
2023/08/26 18:39:07;;;;;;;46.00;21.70;;;;;;;24.43;99.76;99680.73;178732;1259;59847;-82
2023/08/26 18:43:10;;;;;;;79.80;29.40;;;;;;;24.35;100.00;99678.61;178343;1259;46086;-82
2023/08/26 18:47:14;;;;;;;30.40;19.10;;;;;;;24.25;100.00;99674.04;178083;1260;46131;-83
2023/08/26 18:51:18;;;;;;;15.30;10.00;;;;;;;24.07;100.00;99686.83;178171;1259;46115;-82
2023/08/26 18:55:21;;;;;;;16.90;9.20;;;;;;;23.94;100.00;99698.50;178176;1259;46089;-81